Warning: Javascript must be enabled to use all the features on this page!


Page Loading - Please Wait...

Click to hideNews Bulletins

Peak Streamflow for the Nation

USGS 06469400 PIPESTEM CREEK NR PINGREE, ND

Stutsman County, North Dakota
Hydrologic Unit Code 10160002
Latitude  47°10'03", Longitude  98°58'07" NAD27
Drainage area 700  square miles
Contributing drainage area 260  square miles
Gage datum 1,501.9 feet above NAVD88
Output formats
Table
Graph
Tab-separated file
peakfq (watstore) format
Reselect output format
Water
Year
Date Gage
Height
(feet)
Stream-
flow
(cfs)
1974 1974-05-25 7.83 356
1975 1975-04-19 11.471 2,400
1976 1976-03-29 7.832 334
1977 1977-04-09 3.942 0.46
1978 1978-03-28 9.20 690
1979 1979-04-20 11.60 2,520
1980 1980-06-05 5.91 95.0
1981 1981-02-24 7.051,2 200
1982 1982-03-30 10.621 860
1983 1983-03-10 11.281 1,400
1984 1984-03-26 9.61 865
1985 1985-03-16 7.171 250
1986 1986-03-15 8.051 350
1987 1987-04-01 9.491 750
1988 1988-04-01 7.581 250
1989 1989-09-09 5.95 99.0
1990 1990-06-03 5.552 21.0
1991 1991-07-03 5.541 37.0
1992 1992-03-09 6.981 162
1993 1993-07-26 10.64 1,150
1994 1994-09-16 11.02 1,470
1995 1995-03-17 11.70 3,180
1996 1996-04-11 11.012 2,560
1997 1997-04-19 11.37 3,400
1998 1998-03-29 9.93 1,300
1999 1999-03-22 10.102 1,360
2000 2000-07-18 9.842 906
2001 2001-03-23 11.07 940
2002 2002-04-15 5.78 90.0
2003 2003-03-26 6.72 204
2004 2004-04-01 8.502 600
2005 2005-06-17 5.88 92.0
2006 2006-04-06 5.732 70.0
2007 2007-03-21 7.792 410
2008 2008-06-12 6.03 131
2009 2009-04-14 13.15 9,200
2010 2010-04-03 10.532 1,670
2011 2011-04-09 11.972 3,680
2012 2012-03-16 6.112 135
2013 2013-04-30 11.58 2,630
2014 2014-04-14 7.902 401
2015 2015-05-18 6.78 253
2016 2016-04-27 5.57 69.0
2017 2017-03-30 10.112 1,220
2018 2018-04-27 7.41 279
2019 2019-09-24 12.19 2,770
2020 2019-10-22 12.06 2,830
2021 2021-05-29 5.20 21.8
?
  Peak Gage-Height Qualification Codes.